sensor_id;sensor_type;location;lat;lon;timestamp;P1;durP1;ratioP1;P2;durP2;ratioP2
30998;SDS011;20549;50.042;8.968;2024-01-11T00:00:03;32.20;;;19.93;;
30998;SDS011;20549;50.042;8.968;2024-01-11T00:02:29;34.67;;;21.57;;
30998;SDS011;20549;50.042;8.968;2024-01-11T00:04:56;30.00;;;18.27;;
30998;SDS011;20549;50.042;8.968;2024-01-11T00:07:23;32.57;;;19.43;;
30998;SDS011;20549;50.042;8.968;2024-01-11T00:09:49;30.53;;;19.17;;
30998;SDS011;20549;50.042;8.968;2024-01-11T00:12:16;33.10;;;19.90;;
30998;SDS011;20549;50.042;8.968;2024-01-11T00:14:42;32.63;;;18.73;;
30998;SDS011;20549;50.042;8.968;2024-01-11T00:17:09;28.40;;;17.10;;
30998;SDS011;20549;50.042;8.968;2024-01-11T00:19:36;30.93;;;19.67;;
30998;SDS011;20549;50.042;8.968;2024-01-11T00:22:02;27.33;;;17.37;;
30998;SDS011;20549;50.042;8.968;2024-01-11T00:24:29;31.07;;;19.00;;
30998;SDS011;20549;50.042;8.968;2024-01-11T00:26:55;32.83;;;18.10;;
30998;SDS011;20549;50.042;8.968;2024-01-11T00:29:22;30.77;;;18.60;;
30998;SDS011;20549;50.042;8.968;2024-01-11T00:31:48;27.77;;;17.27;;
30998;SDS011;20549;50.042;8.968;2024-01-11T00:34:15;26.17;;;18.57;;
30998;SDS011;20549;50.042;8.968;2024-01-11T00:36:42;31.90;;;18.87;;
30998;SDS011;20549;50.042;8.968;2024-01-11T00:39:08;33.50;;;19.77;;
30998;SDS011;20549;50.042;8.968;2024-01-11T00:41:35;32.77;;;17.67;;
30998;SDS011;20549;50.042;8.968;2024-01-11T00:44:01;28.63;;;19.07;;
30998;SDS011;20549;50.042;8.968;2024-01-11T00:46:28;29.67;;;19.17;;
30998;SDS011;20549;50.042;8.968;2024-01-11T00:48:55;32.37;;;19.00;;
30998;SDS011;20549;50.042;8.968;2024-01-11T00:51:21;30.83;;;19.77;;
30998;SDS011;20549;50.042;8.968;2024-01-11T00:53:48;32.70;;;19.37;;
30998;SDS011;20549;50.042;8.968;2024-01-11T00:56:15;31.30;;;19.47;;
30998;SDS011;20549;50.042;8.968;2024-01-11T00:58:43;27.70;;;17.70;;
30998;SDS011;20549;50.042;8.968;2024-01-11T01:01:10;32.10;;;18.10;;
30998;SDS011;20549;50.042;8.968;2024-01-11T01:03:37;29.00;;;17.97;;
30998;SDS011;20549;50.042;8.968;2024-01-11T01:06:03;30.83;;;18.87;;
30998;SDS011;20549;50.042;8.968;2024-01-11T01:08:30;29.40;;;17.67;;
30998;SDS011;20549;50.042;8.968;2024-01-11T01:10:56;27.87;;;17.00;;
30998;SDS011;20549;50.042;8.968;2024-01-11T01:13:23;30.70;;;20.03;;
30998;SDS011;20549;50.042;8.968;2024-01-11T01:15:50;31.33;;;18.23;;
30998;SDS011;20549;50.042;8.968;2024-01-11T01:18:16;29.77;;;18.10;;
30998;SDS011;20549;50.042;8.968;2024-01-11T01:20:43;28.93;;;18.50;;
30998;SDS011;20549;50.042;8.968;2024-01-11T01:23:09;27.33;;;18.10;;
30998;SDS011;20549;50.042;8.968;2024-01-11T01:25:36;31.40;;;18.67;;
30998;SDS011;20549;50.042;8.968;2024-01-11T01:28:02;34.73;;;19.20;;
30998;SDS011;20549;50.042;8.968;2024-01-11T01:30:29;33.53;;;18.57;;
30998;SDS011;20549;50.042;8.968;2024-01-11T01:32:56;26.37;;;18.13;;
30998;SDS011;20549;50.042;8.968;2024-01-11T01:35:22;29.50;;;18.23;;
30998;SDS011;20549;50.042;8.968;2024-01-11T01:37:49;31.23;;;19.20;;
30998;SDS011;20549;50.042;8.968;2024-01-11T01:40:15;28.50;;;17.77;;
30998;SDS011;20549;50.042;8.968;2024-01-11T01:42:42;29.57;;;19.07;;
30998;SDS011;20549;50.042;8.968;2024-01-11T01:45:09;31.90;;;18.20;;
30998;SDS011;20549;50.042;8.968;2024-01-11T01:47:35;29.47;;;18.97;;
30998;SDS011;20549;50.042;8.968;2024-01-11T01:50:02;32.13;;;19.13;;
30998;SDS011;20549;50.042;8.968;2024-01-11T01:52:28;28.97;;;18.73;;
30998;SDS011;20549;50.042;8.968;2024-01-11T01:54:55;31.17;;;19.57;;
30998;SDS011;20549;50.042;8.968;2024-01-11T01:57:22;30.27;;;19.17;;
30998;SDS011;20549;50.042;8.968;2024-01-11T01:59:51;30.63;;;19.93;;
30998;SDS011;20549;50.042;8.968;2024-01-11T02:02:17;30.13;;;18.77;;
30998;SDS011;20549;50.042;8.968;2024-01-11T02:04:44;31.50;;;18.73;;
30998;SDS011;20549;50.042;8.968;2024-01-11T02:07:10;32.73;;;20.07;;
30998;SDS011;20549;50.042;8.968;2024-01-11T02:09:37;36.53;;;19.40;;
30998;SDS011;20549;50.042;8.968;2024-01-11T02:12:03;32.00;;;19.37;;
30998;SDS011;20549;50.042;8.968;2024-01-11T02:14:30;32.33;;;18.87;;
30998;SDS011;20549;50.042;8.968;2024-01-11T02:16:57;31.23;;;18.87;;
30998;SDS011;20549;50.042;8.968;2024-01-11T02:19:23;31.30;;;19.47;;
30998;SDS011;20549;50.042;8.968;2024-01-11T02:21:51;34.97;;;20.63;;
30998;SDS011;20549;50.042;8.968;2024-01-11T02:24:16;31.50;;;18.37;;
30998;SDS011;20549;50.042;8.968;2024-01-11T02:26:59;39.13;;;19.67;;
30998;SDS011;20549;50.042;8.968;2024-01-11T02:29:25;34.37;;;19.83;;
30998;SDS011;20549;50.042;8.968;2024-01-11T02:31:52;31.07;;;19.03;;
30998;SDS011;20549;50.042;8.968;2024-01-11T02:34:18;28.00;;;17.73;;
30998;SDS011;20549;50.042;8.968;2024-01-11T02:36:45;32.07;;;19.87;;
30998;SDS011;20549;50.042;8.968;2024-01-11T02:39:11;33.23;;;18.53;;
30998;SDS011;20549;50.042;8.968;2024-01-11T02:41:38;33.40;;;19.50;;
30998;SDS011;20549;50.042;8.968;2024-01-11T02:44:04;30.13;;;17.57;;
30998;SDS011;20549;50.042;8.968;2024-01-11T02:46:32;30.27;;;18.40;;
30998;SDS011;20549;50.042;8.968;2024-01-11T02:48:58;34.10;;;18.43;;
30998;SDS011;20549;50.042;8.968;2024-01-11T02:51:24;29.43;;;18.90;;
30998;SDS011;20549;50.042;8.968;2024-01-11T02:53:51;32.53;;;19.10;;
30998;SDS011;20549;50.042;8.968;2024-01-11T02:56:17;32.97;;;19.77;;
30998;SDS011;20549;50.042;8.968;2024-01-11T02:58:44;32.67;;;19.30;;
30998;SDS011;20549;50.042;8.968;2024-01-11T03:01:11;34.73;;;18.63;;
30998;SDS011;20549;50.042;8.968;2024-01-11T03:03:37;31.33;;;18.60;;
30998;SDS011;20549;50.042;8.968;2024-01-11T03:06:04;34.60;;;19.60;;
30998;SDS011;20549;50.042;8.968;2024-01-11T03:08:31;33.17;;;20.13;;
30998;SDS011;20549;50.042;8.968;2024-01-11T03:10:57;36.80;;;20.37;;
30998;SDS011;20549;50.042;8.968;2024-01-11T03:13:24;34.03;;;19.03;;
30998;SDS011;20549;50.042;8.968;2024-01-11T03:15:50;34.80;;;18.53;;
30998;SDS011;20549;50.042;8.968;2024-01-11T03:18:17;35.57;;;20.00;;
30998;SDS011;20549;50.042;8.968;2024-01-11T03:20:43;31.10;;;17.73;;
30998;SDS011;20549;50.042;8.968;2024-01-11T03:23:10;32.47;;;18.90;;
30998;SDS011;20549;50.042;8.968;2024-01-11T03:25:37;35.03;;;20.17;;
30998;SDS011;20549;50.042;8.968;2024-01-11T03:28:03;34.13;;;19.30;;
30998;SDS011;20549;50.042;8.968;2024-01-11T03:30:30;33.10;;;19.93;;
30998;SDS011;20549;50.042;8.968;2024-01-11T03:32:56;35.93;;;19.27;;
30998;SDS011;20549;50.042;8.968;2024-01-11T03:35:23;33.83;;;20.13;;
30998;SDS011;20549;50.042;8.968;2024-01-11T03:37:49;33.17;;;18.33;;
30998;SDS011;20549;50.042;8.968;2024-01-11T03:40:16;33.60;;;20.00;;
30998;SDS011;20549;50.042;8.968;2024-01-11T03:42:43;30.23;;;18.53;;
30998;SDS011;20549;50.042;8.968;2024-01-11T03:45:09;31.40;;;18.33;;
30998;SDS011;20549;50.042;8.968;2024-01-11T03:47:36;36.97;;;19.93;;
30998;SDS011;20549;50.042;8.968;2024-01-11T03:50:02;32.70;;;19.23;;
30998;SDS011;20549;50.042;8.968;2024-01-11T03:52:29;34.27;;;19.23;;
30998;SDS011;20549;50.042;8.968;2024-01-11T03:54:56;35.60;;;20.00;;
30998;SDS011;20549;50.042;8.968;2024-01-11T03:57:22;29.13;;;18.53;;
30998;SDS011;20549;50.042;8.968;2024-01-11T03:59:49;31.73;;;18.83;;
30998;SDS011;20549;50.042;8.968;2024-01-11T04:02:15;33.07;;;20.43;;
30998;SDS011;20549;50.042;8.968;2024-01-11T04:04:42;40.43;;;21.13;;
30998;SDS011;20549;50.042;8.968;2024-01-11T04:07:09;35.60;;;20.50;;
30998;SDS011;20549;50.042;8.968;2024-01-11T04:09:37;33.10;;;19.90;;
30998;SDS011;20549;50.042;8.968;2024-01-11T04:12:02;31.90;;;20.53;;
30998;SDS011;20549;50.042;8.968;2024-01-11T04:14:28;37.70;;;20.83;;
30998;SDS011;20549;50.042;8.968;2024-01-11T04:16:55;36.40;;;20.37;;
30998;SDS011;20549;50.042;8.968;2024-01-11T04:19:22;36.63;;;21.70;;
30998;SDS011;20549;50.042;8.968;2024-01-11T04:21:48;35.27;;;20.63;;
30998;SDS011;20549;50.042;8.968;2024-01-11T04:24:15;39.50;;;21.13;;
30998;SDS011;20549;50.042;8.968;2024-01-11T04:26:41;35.63;;;19.60;;
30998;SDS011;20549;50.042;8.968;2024-01-11T04:29:08;35.67;;;20.33;;
30998;SDS011;20549;50.042;8.968;2024-01-11T04:31:34;34.33;;;20.30;;
30998;SDS011;20549;50.042;8.968;2024-01-11T04:34:01;35.93;;;21.07;;
30998;SDS011;20549;50.042;8.968;2024-01-11T04:36:28;36.37;;;21.07;;
30998;SDS011;20549;50.042;8.968;2024-01-11T04:38:54;32.90;;;20.50;;
30998;SDS011;20549;50.042;8.968;2024-01-11T04:41:21;35.70;;;20.73;;
30998;SDS011;20549;50.042;8.968;2024-01-11T04:43:47;42.23;;;22.13;;
30998;SDS011;20549;50.042;8.968;2024-01-11T04:46:17;38.57;;;21.87;;
30998;SDS011;20549;50.042;8.968;2024-01-11T04:48:43;35.50;;;21.00;;
30998;SDS011;20549;50.042;8.968;2024-01-11T04:51:10;35.40;;;20.20;;
30998;SDS011;20549;50.042;8.968;2024-01-11T04:53:37;39.40;;;21.37;;
30998;SDS011;20549;50.042;8.968;2024-01-11T04:56:03;38.17;;;21.93;;
30998;SDS011;20549;50.042;8.968;2024-01-11T04:58:30;38.73;;;20.93;;
30998;SDS011;20549;50.042;8.968;2024-01-11T05:00:56;42.97;;;22.53;;
30998;SDS011;20549;50.042;8.968;2024-01-11T05:03:23;37.63;;;22.67;;
30998;SDS011;20549;50.042;8.968;2024-01-11T05:05:50;37.80;;;21.57;;
30998;SDS011;20549;50.042;8.968;2024-01-11T05:08:16;37.10;;;22.70;;
30998;SDS011;20549;50.042;8.968;2024-01-11T05:10:43;36.13;;;22.73;;
30998;SDS011;20549;50.042;8.968;2024-01-11T05:13:09;44.13;;;24.07;;
30998;SDS011;20549;50.042;8.968;2024-01-11T05:15:36;41.27;;;21.37;;
30998;SDS011;20549;50.042;8.968;2024-01-11T05:18:02;42.30;;;22.50;;
30998;SDS011;20549;50.042;8.968;2024-01-11T05:20:29;41.70;;;23.23;;
30998;SDS011;20549;50.042;8.968;2024-01-11T05:22:56;42.23;;;21.67;;
30998;SDS011;20549;50.042;8.968;2024-01-11T05:25:22;39.43;;;21.57;;
30998;SDS011;20549;50.042;8.968;2024-01-11T05:27:49;45.77;;;22.73;;
30998;SDS011;20549;50.042;8.968;2024-01-11T05:30:15;40.17;;;23.07;;
30998;SDS011;20549;50.042;8.968;2024-01-11T05:32:42;41.30;;;22.47;;
30998;SDS011;20549;50.042;8.968;2024-01-11T05:35:09;35.97;;;21.43;;
30998;SDS011;20549;50.042;8.968;2024-01-11T05:37:35;41.43;;;22.67;;
30998;SDS011;20549;50.042;8.968;2024-01-11T05:40:02;35.57;;;21.67;;
30998;SDS011;20549;50.042;8.968;2024-01-11T05:42:28;39.53;;;22.10;;
30998;SDS011;20549;50.042;8.968;2024-01-11T05:44:55;35.27;;;21.13;;
30998;SDS011;20549;50.042;8.968;2024-01-11T05:47:22;40.73;;;21.27;;
30998;SDS011;20549;50.042;8.968;2024-01-11T05:49:48;35.47;;;21.27;;
30998;SDS011;20549;50.042;8.968;2024-01-11T05:52:15;36.67;;;20.50;;
30998;SDS011;20549;50.042;8.968;2024-01-11T05:54:41;34.87;;;20.30;;
30998;SDS011;20549;50.042;8.968;2024-01-11T05:57:08;37.43;;;20.70;;
30998;SDS011;20549;50.042;8.968;2024-01-11T05:59:35;41.30;;;21.17;;
30998;SDS011;20549;50.042;8.968;2024-01-11T06:02:01;40.90;;;21.00;;
30998;SDS011;20549;50.042;8.968;2024-01-11T06:04:28;34.87;;;20.80;;
30998;SDS011;20549;50.042;8.968;2024-01-11T06:06:54;32.93;;;19.27;;
30998;SDS011;20549;50.042;8.968;2024-01-11T06:09:21;39.53;;;22.10;;
30998;SDS011;20549;50.042;8.968;2024-01-11T06:11:47;34.40;;;20.83;;
30998;SDS011;20549;50.042;8.968;2024-01-11T06:14:14;41.80;;;21.73;;
30998;SDS011;20549;50.042;8.968;2024-01-11T06:16:41;40.03;;;22.53;;
30998;SDS011;20549;50.042;8.968;2024-01-11T06:19:07;37.57;;;22.20;;
30998;SDS011;20549;50.042;8.968;2024-01-11T06:21:34;40.60;;;21.90;;
30998;SDS011;20549;50.042;8.968;2024-01-11T06:24:00;40.03;;;22.13;;
30998;SDS011;20549;50.042;8.968;2024-01-11T06:26:27;40.27;;;22.83;;
30998;SDS011;20549;50.042;8.968;2024-01-11T06:28:54;35.73;;;21.00;;
30998;SDS011;20549;50.042;8.968;2024-01-11T06:31:20;39.90;;;22.33;;
30998;SDS011;20549;50.042;8.968;2024-01-11T06:33:47;42.97;;;23.93;;
30998;SDS011;20549;50.042;8.968;2024-01-11T06:36:13;40.57;;;22.37;;
30998;SDS011;20549;50.042;8.968;2024-01-11T06:38:40;43.47;;;23.07;;
30998;SDS011;20549;50.042;8.968;2024-01-11T06:41:07;44.00;;;23.20;;
30998;SDS011;20549;50.042;8.968;2024-01-11T06:43:33;36.20;;;23.23;;
30998;SDS011;20549;50.042;8.968;2024-01-11T06:46:06;39.07;;;23.57;;
30998;SDS011;20549;50.042;8.968;2024-01-11T06:48:32;46.63;;;24.90;;
30998;SDS011;20549;50.042;8.968;2024-01-11T06:50:59;42.20;;;24.27;;
30998;SDS011;20549;50.042;8.968;2024-01-11T06:53:26;40.50;;;23.73;;
30998;SDS011;20549;50.042;8.968;2024-01-11T06:55:52;40.93;;;22.97;;
30998;SDS011;20549;50.042;8.968;2024-01-11T06:58:22;39.93;;;24.43;;
30998;SDS011;20549;50.042;8.968;2024-01-11T07:00:48;38.37;;;24.07;;
30998;SDS011;20549;50.042;8.968;2024-01-11T07:03:15;41.73;;;24.20;;
30998;SDS011;20549;50.042;8.968;2024-01-11T07:05:41;41.47;;;23.97;;
30998;SDS011;20549;50.042;8.968;2024-01-11T07:08:08;42.83;;;23.87;;
30998;SDS011;20549;50.042;8.968;2024-01-11T07:10:35;41.73;;;25.63;;
30998;SDS011;20549;50.042;8.968;2024-01-11T07:13:01;54.33;;;28.30;;
30998;SDS011;20549;50.042;8.968;2024-01-11T07:15:28;43.33;;;23.53;;
30998;SDS011;20549;50.042;8.968;2024-01-11T07:17:54;39.93;;;24.13;;
30998;SDS011;20549;50.042;8.968;2024-01-11T07:20:21;39.77;;;23.50;;
30998;SDS011;20549;50.042;8.968;2024-01-11T07:22:48;40.07;;;22.30;;
30998;SDS011;20549;50.042;8.968;2024-01-11T07:25:14;44.23;;;23.20;;
30998;SDS011;20549;50.042;8.968;2024-01-11T07:27:41;39.83;;;23.63;;
30998;SDS011;20549;50.042;8.968;2024-01-11T07:30:07;40.27;;;22.90;;
30998;SDS011;20549;50.042;8.968;2024-01-11T07:32:34;41.37;;;22.87;;
30998;SDS011;20549;50.042;8.968;2024-01-11T07:35:01;42.63;;;23.93;;
30998;SDS011;20549;50.042;8.968;2024-01-11T07:37:27;44.07;;;23.90;;
30998;SDS011;20549;50.042;8.968;2024-01-11T07:39:54;44.73;;;24.17;;
30998;SDS011;20549;50.042;8.968;2024-01-11T07:42:20;43.90;;;25.47;;
30998;SDS011;20549;50.042;8.968;2024-01-11T07:44:47;44.33;;;24.87;;
30998;SDS011;20549;50.042;8.968;2024-01-11T07:47:14;45.13;;;25.30;;
30998;SDS011;20549;50.042;8.968;2024-01-11T07:49:40;43.37;;;24.23;;
30998;SDS011;20549;50.042;8.968;2024-01-11T07:52:07;42.20;;;23.37;;
30998;SDS011;20549;50.042;8.968;2024-01-11T07:54:33;46.63;;;24.40;;
30998;SDS011;20549;50.042;8.968;2024-01-11T07:57:00;40.10;;;23.97;;
30998;SDS011;20549;50.042;8.968;2024-01-11T07:59:26;42.30;;;24.17;;
30998;SDS011;20549;50.042;8.968;2024-01-11T08:01:53;38.97;;;23.17;;
30998;SDS011;20549;50.042;8.968;2024-01-11T08:04:20;40.13;;;22.87;;
30998;SDS011;20549;50.042;8.968;2024-01-11T08:06:46;43.90;;;22.07;;
30998;SDS011;20549;50.042;8.968;2024-01-11T08:09:13;38.80;;;23.20;;
30998;SDS011;20549;50.042;8.968;2024-01-11T08:11:39;41.47;;;22.03;;
30998;SDS011;20549;50.042;8.968;2024-01-11T08:14:06;36.57;;;22.00;;
30998;SDS011;20549;50.042;8.968;2024-01-11T08:16:33;45.83;;;24.17;;
30998;SDS011;20549;50.042;8.968;2024-01-11T08:18:59;36.53;;;22.93;;
30998;SDS011;20549;50.042;8.968;2024-01-11T08:21:26;36.00;;;21.47;;
30998;SDS011;20549;50.042;8.968;2024-01-11T08:23:52;36.50;;;23.13;;
30998;SDS011;20549;50.042;8.968;2024-01-11T08:26:19;37.60;;;22.03;;
30998;SDS011;20549;50.042;8.968;2024-01-11T08:28:46;34.97;;;21.03;;
30998;SDS011;20549;50.042;8.968;2024-01-11T08:31:12;38.40;;;22.30;;
30998;SDS011;20549;50.042;8.968;2024-01-11T08:33:39;38.97;;;22.57;;
30998;SDS011;20549;50.042;8.968;2024-01-11T08:36:05;37.27;;;22.80;;
30998;SDS011;20549;50.042;8.968;2024-01-11T08:38:32;35.00;;;21.90;;
30998;SDS011;20549;50.042;8.968;2024-01-11T08:40:58;36.90;;;21.83;;
30998;SDS011;20549;50.042;8.968;2024-01-11T08:43:26;34.37;;;21.07;;
30998;SDS011;20549;50.042;8.968;2024-01-11T08:45:52;36.30;;;22.43;;
30998;SDS011;20549;50.042;8.968;2024-01-11T08:48:18;41.90;;;23.73;;
30998;SDS011;20549;50.042;8.968;2024-01-11T08:50:45;37.57;;;22.67;;
30998;SDS011;20549;50.042;8.968;2024-01-11T08:53:11;40.50;;;25.33;;
30998;SDS011;20549;50.042;8.968;2024-01-11T08:55:38;43.27;;;24.90;;
30998;SDS011;20549;50.042;8.968;2024-01-11T08:58:05;40.33;;;25.57;;
30998;SDS011;20549;50.042;8.968;2024-01-11T09:00:31;40.70;;;26.00;;
30998;SDS011;20549;50.042;8.968;2024-01-11T09:03:02;37.80;;;23.97;;
30998;SDS011;20549;50.042;8.968;2024-01-11T09:05:24;36.53;;;23.73;;
30998;SDS011;20549;50.042;8.968;2024-01-11T09:07:51;40.37;;;24.13;;
30998;SDS011;20549;50.042;8.968;2024-01-11T09:10:18;42.47;;;24.47;;
30998;SDS011;20549;50.042;8.968;2024-01-11T09:12:44;33.77;;;23.40;;
30998;SDS011;20549;50.042;8.968;2024-01-11T09:15:11;34.97;;;24.63;;
30998;SDS011;20549;50.042;8.968;2024-01-11T09:17:37;41.73;;;25.50;;
30998;SDS011;20549;50.042;8.968;2024-01-11T09:20:04;40.33;;;24.63;;
30998;SDS011;20549;50.042;8.968;2024-01-11T09:22:31;39.50;;;24.53;;
30998;SDS011;20549;50.042;8.968;2024-01-11T09:24:57;39.93;;;25.23;;
30998;SDS011;20549;50.042;8.968;2024-01-11T09:27:24;41.57;;;24.60;;
30998;SDS011;20549;50.042;8.968;2024-01-11T09:29:50;40.97;;;23.93;;
30998;SDS011;20549;50.042;8.968;2024-01-11T09:32:17;40.97;;;26.63;;
30998;SDS011;20549;50.042;8.968;2024-01-11T09:34:43;43.07;;;26.23;;
30998;SDS011;20549;50.042;8.968;2024-01-11T09:37:10;42.87;;;25.70;;
30998;SDS011;20549;50.042;8.968;2024-01-11T09:39:37;37.27;;;25.63;;
30998;SDS011;20549;50.042;8.968;2024-01-11T09:42:07;45.87;;;27.60;;
30998;SDS011;20549;50.042;8.968;2024-01-11T09:44:33;40.40;;;24.40;;
30998;SDS011;20549;50.042;8.968;2024-01-11T09:47:00;36.80;;;23.63;;
30998;SDS011;20549;50.042;8.968;2024-01-11T09:49:26;38.97;;;24.07;;
30998;SDS011;20549;50.042;8.968;2024-01-11T09:51:52;35.13;;;23.50;;
30998;SDS011;20549;50.042;8.968;2024-01-11T09:54:19;35.43;;;23.13;;
30998;SDS011;20549;50.042;8.968;2024-01-11T09:56:46;38.27;;;24.80;;
30998;SDS011;20549;50.042;8.968;2024-01-11T09:59:12;37.87;;;23.63;;
30998;SDS011;20549;50.042;8.968;2024-01-11T10:01:39;37.03;;;24.67;;
30998;SDS011;20549;50.042;8.968;2024-01-11T10:04:05;37.70;;;24.73;;
30998;SDS011;20549;50.042;8.968;2024-01-11T10:06:32;38.10;;;24.23;;
30998;SDS011;20549;50.042;8.968;2024-01-11T10:08:58;32.37;;;23.30;;
30998;SDS011;20549;50.042;8.968;2024-01-11T10:11:25;38.83;;;24.40;;
30998;SDS011;20549;50.042;8.968;2024-01-11T10:13:58;35.40;;;23.03;;
30998;SDS011;20549;50.042;8.968;2024-01-11T10:16:24;37.63;;;23.27;;
30998;SDS011;20549;50.042;8.968;2024-01-11T10:18:54;35.00;;;22.63;;
30998;SDS011;20549;50.042;8.968;2024-01-11T10:21:21;37.57;;;23.47;;
30998;SDS011;20549;50.042;8.968;2024-01-11T10:23:48;35.83;;;23.07;;
30998;SDS011;20549;50.042;8.968;2024-01-11T10:26:17;37.40;;;23.60;;
30998;SDS011;20549;50.042;8.968;2024-01-11T10:28:46;33.87;;;22.73;;
30998;SDS011;20549;50.042;8.968;2024-01-11T10:31:10;36.37;;;23.30;;
30998;SDS011;20549;50.042;8.968;2024-01-11T10:33:36;38.33;;;23.20;;
30998;SDS011;20549;50.042;8.968;2024-01-11T10:36:03;32.77;;;22.07;;
30998;SDS011;20549;50.042;8.968;2024-01-11T10:38:34;36.60;;;23.73;;
30998;SDS011;20549;50.042;8.968;2024-01-11T10:40:59;32.17;;;22.63;;
30998;SDS011;20549;50.042;8.968;2024-01-11T10:43:26;36.67;;;24.00;;
30998;SDS011;20549;50.042;8.968;2024-01-11T10:45:52;33.70;;;21.93;;
30998;SDS011;20549;50.042;8.968;2024-01-11T10:48:19;34.80;;;22.73;;
30998;SDS011;20549;50.042;8.968;2024-01-11T10:50:45;32.33;;;22.77;;
30998;SDS011;20549;50.042;8.968;2024-01-11T10:53:12;32.07;;;23.17;;
30998;SDS011;20549;50.042;8.968;2024-01-11T10:55:38;38.10;;;23.23;;
30998;SDS011;20549;50.042;8.968;2024-01-11T10:58:05;36.50;;;23.17;;
30998;SDS011;20549;50.042;8.968;2024-01-11T11:00:32;39.80;;;24.03;;
30998;SDS011;20549;50.042;8.968;2024-01-11T11:02:59;36.80;;;24.03;;
30998;SDS011;20549;50.042;8.968;2024-01-11T11:05:25;34.60;;;23.07;;
30998;SDS011;20549;50.042;8.968;2024-01-11T11:07:51;35.83;;;22.90;;
30998;SDS011;20549;50.042;8.968;2024-01-11T11:10:18;35.83;;;24.13;;
30998;SDS011;20549;50.042;8.968;2024-01-11T11:12:45;38.07;;;22.67;;
30998;SDS011;20549;50.042;8.968;2024-01-11T11:15:12;33.27;;;23.27;;
30998;SDS011;20549;50.042;8.968;2024-01-11T11:17:38;35.90;;;24.10;;
30998;SDS011;20549;50.042;8.968;2024-01-11T11:20:05;38.27;;;23.30;;
30998;SDS011;20549;50.042;8.968;2024-01-11T11:22:33;37.00;;;23.27;;
30998;SDS011;20549;50.042;8.968;2024-01-11T11:25:04;37.30;;;23.90;;
30998;SDS011;20549;50.042;8.968;2024-01-11T11:27:30;37.77;;;24.63;;
30998;SDS011;20549;50.042;8.968;2024-01-11T11:29:57;38.63;;;24.87;;
30998;SDS011;20549;50.042;8.968;2024-01-11T11:32:36;40.90;;;23.80;;
30998;SDS011;20549;50.042;8.968;2024-01-11T11:35:02;34.27;;;22.40;;
30998;SDS011;20549;50.042;8.968;2024-01-11T11:37:29;34.97;;;23.17;;
30998;SDS011;20549;50.042;8.968;2024-01-11T11:39:56;34.23;;;22.70;;
30998;SDS011;20549;50.042;8.968;2024-01-11T11:42:22;36.70;;;23.23;;
30998;SDS011;20549;50.042;8.968;2024-01-11T11:44:49;37.43;;;23.40;;
30998;SDS011;20549;50.042;8.968;2024-01-11T11:47:21;41.03;;;25.33;;
30998;SDS011;20549;50.042;8.968;2024-01-11T11:52:40;38.83;;;24.30;;
30998;SDS011;20549;50.042;8.968;2024-01-11T11:55:02;37.93;;;24.30;;
30998;SDS011;20549;50.042;8.968;2024-01-11T11:57:29;36.30;;;22.80;;
30998;SDS011;20549;50.042;8.968;2024-01-11T11:59:56;33.63;;;23.10;;
30998;SDS011;20549;50.042;8.968;2024-01-11T12:02:22;38.90;;;22.50;;
30998;SDS011;20549;50.042;8.968;2024-01-11T12:04:49;31.97;;;21.53;;
30998;SDS011;20549;50.042;8.968;2024-01-11T12:07:15;38.23;;;22.93;;
30998;SDS011;20549;50.042;8.968;2024-01-11T12:09:42;35.63;;;22.17;;
30998;SDS011;20549;50.042;8.968;2024-01-11T12:12:08;35.50;;;22.73;;
30998;SDS011;20549;50.042;8.968;2024-01-11T12:14:35;33.43;;;22.40;;
30998;SDS011;20549;50.042;8.968;2024-01-11T12:17:02;37.63;;;23.37;;
30998;SDS011;20549;50.042;8.968;2024-01-11T12:19:28;38.43;;;24.80;;
30998;SDS011;20549;50.042;8.968;2024-01-11T12:21:55;43.27;;;25.43;;
30998;SDS011;20549;50.042;8.968;2024-01-11T12:24:21;37.63;;;24.30;;
30998;SDS011;20549;50.042;8.968;2024-01-11T12:26:48;38.43;;;24.03;;
30998;SDS011;20549;50.042;8.968;2024-01-11T12:29:14;38.20;;;23.33;;
30998;SDS011;20549;50.042;8.968;2024-01-11T12:31:41;33.37;;;23.13;;
30998;SDS011;20549;50.042;8.968;2024-01-11T12:34:08;35.37;;;22.40;;
30998;SDS011;20549;50.042;8.968;2024-01-11T12:36:34;36.80;;;23.37;;
30998;SDS011;20549;50.042;8.968;2024-01-11T12:39:01;38.40;;;24.13;;
30998;SDS011;20549;50.042;8.968;2024-01-11T12:41:27;33.63;;;23.67;;
30998;SDS011;20549;50.042;8.968;2024-01-11T12:43:54;34.63;;;23.07;;
30998;SDS011;20549;50.042;8.968;2024-01-11T12:46:21;33.07;;;22.90;;
30998;SDS011;20549;50.042;8.968;2024-01-11T12:48:47;40.53;;;23.90;;
30998;SDS011;20549;50.042;8.968;2024-01-11T12:51:15;37.37;;;25.27;;
30998;SDS011;20549;50.042;8.968;2024-01-11T12:53:40;35.73;;;22.97;;
30998;SDS011;20549;50.042;8.968;2024-01-11T12:56:07;34.30;;;21.97;;
30998;SDS011;20549;50.042;8.968;2024-01-11T12:58:36;41.17;;;24.33;;
30998;SDS011;20549;50.042;8.968;2024-01-11T13:01:03;33.87;;;21.80;;
30998;SDS011;20549;50.042;8.968;2024-01-11T13:03:29;34.37;;;23.30;;
30998;SDS011;20549;50.042;8.968;2024-01-11T13:05:56;33.20;;;21.93;;
30998;SDS011;20549;50.042;8.968;2024-01-11T13:08:22;35.30;;;23.53;;
30998;SDS011;20549;50.042;8.968;2024-01-11T13:10:49;37.17;;;23.73;;
30998;SDS011;20549;50.042;8.968;2024-01-11T13:13:16;35.97;;;23.43;;
30998;SDS011;20549;50.042;8.968;2024-01-11T13:15:42;34.90;;;22.73;;
30998;SDS011;20549;50.042;8.968;2024-01-11T13:18:09;34.07;;;22.87;;
30998;SDS011;20549;50.042;8.968;2024-01-11T13:20:35;32.33;;;21.87;;
30998;SDS011;20549;50.042;8.968;2024-01-11T13:23:15;33.60;;;22.33;;
30998;SDS011;20549;50.042;8.968;2024-01-11T13:25:47;30.50;;;21.57;;
30998;SDS011;20549;50.042;8.968;2024-01-11T13:28:13;28.07;;;21.07;;
30998;SDS011;20549;50.042;8.968;2024-01-11T13:30:40;31.73;;;21.30;;
30998;SDS011;20549;50.042;8.968;2024-01-11T13:33:06;33.27;;;22.07;;
30998;SDS011;20549;50.042;8.968;2024-01-11T13:35:33;33.23;;;21.13;;
30998;SDS011;20549;50.042;8.968;2024-01-11T13:37:59;30.97;;;21.47;;
30998;SDS011;20549;50.042;8.968;2024-01-11T13:40:26;31.80;;;20.00;;
30998;SDS011;20549;50.042;8.968;2024-01-11T13:42:52;30.57;;;21.47;;
30998;SDS011;20549;50.042;8.968;2024-01-11T13:45:19;29.53;;;20.20;;
30998;SDS011;20549;50.042;8.968;2024-01-11T13:47:45;31.40;;;20.57;;
30998;SDS011;20549;50.042;8.968;2024-01-11T13:50:12;32.77;;;20.90;;
30998;SDS011;20549;50.042;8.968;2024-01-11T13:52:39;33.70;;;21.63;;
30998;SDS011;20549;50.042;8.968;2024-01-11T13:55:05;29.83;;;20.57;;
30998;SDS011;20549;50.042;8.968;2024-01-11T13:57:32;32.83;;;21.60;;
30998;SDS011;20549;50.042;8.968;2024-01-11T13:59:58;34.07;;;21.83;;
30998;SDS011;20549;50.042;8.968;2024-01-11T14:02:25;32.20;;;20.57;;
30998;SDS011;20549;50.042;8.968;2024-01-11T14:04:52;30.83;;;21.83;;
30998;SDS011;20549;50.042;8.968;2024-01-11T14:07:18;27.17;;;20.63;;
30998;SDS011;20549;50.042;8.968;2024-01-11T14:09:45;30.83;;;20.57;;
30998;SDS011;20549;50.042;8.968;2024-01-11T14:12:11;34.40;;;21.10;;
30998;SDS011;20549;50.042;8.968;2024-01-11T14:14:38;29.07;;;20.43;;
30998;SDS011;20549;50.042;8.968;2024-01-11T14:17:05;31.90;;;21.47;;
30998;SDS011;20549;50.042;8.968;2024-01-11T14:19:31;28.00;;;19.10;;